Terminal Aerodrome Forecast
Issued by NWS Boston, MA

Home | Current Version | Previous Version | Text Only | Print | Product List | Glossary On
Versions: 1 2 3 4 5 6 7 8 9 10 11 12 13 14 15 16 17 18
000
FTUS41 KBOX 221131
TAFORH
TAF
KORH 221131Z 2212/2312 19004KT P6SM -RA OVC060
     FM221400 VRB03KT 2SM -RA BR OVC015
     FM221800 31010KT 3SM -RA BR OVC010
     FM222100 31010G21KT P6SM SCT030
     FM230800 31010KT P6SM SKC=

USA.gov is the U.S. government's official web portal to all federal, state and local government web resources and services.